sensor_id;sensor_type;location;lat;lon;timestamp;pressure;altitude;pressure_sealevel;temperature;humidity
73679;BME280;61978;52.742;16.962;2022-10-16T00:01:20;100700.82;;;16.46;100.00
73679;BME280;61978;52.742;16.962;2022-10-16T00:03:47;100700.37;;;16.49;100.00
73679;BME280;61978;52.742;16.962;2022-10-16T00:06:15;100692.62;;;16.44;100.00
73679;BME280;61978;52.742;16.962;2022-10-16T00:08:42;100693.59;;;16.49;100.00
73679;BME280;61978;52.742;16.962;2022-10-16T00:11:14;100696.69;;;16.53;100.00
73679;BME280;61978;52.742;16.962;2022-10-16T00:13:38;100689.52;;;16.49;100.00
73679;BME280;61978;52.742;16.962;2022-10-16T00:16:05;100688.94;;;16.47;100.00
73679;BME280;61978;52.742;16.962;2022-10-16T00:18:32;100699.71;;;16.45;100.00
73679;BME280;61978;52.742;16.962;2022-10-16T00:21:05;100701.06;;;16.36;100.00
73679;BME280;61978;52.742;16.962;2022-10-16T00:23:32;100700.38;;;16.40;100.00
73679;BME280;61978;52.742;16.962;2022-10-16T00:26:01;100698.25;;;16.42;100.00
73679;BME280;61978;52.742;16.962;2022-10-16T00:28:28;100703.84;;;16.47;100.00
73679;BME280;61978;52.742;16.962;2022-10-16T00:30:55;100700.89;;;16.49;100.00
73679;BME280;61978;52.742;16.962;2022-10-16T00:33:21;100699.35;;;16.59;100.00
73679;BME280;61978;52.742;16.962;2022-10-16T00:35:48;100704.39;;;16.56;100.00
73679;BME280;61978;52.742;16.962;2022-10-16T00:38:16;100702.06;;;16.59;100.00
73679;BME280;61978;52.742;16.962;2022-10-16T00:40:42;100704.16;;;16.57;100.00
73679;BME280;61978;52.742;16.962;2022-10-16T00:43:13;100707.03;;;16.62;100.00
73679;BME280;61978;52.742;16.962;2022-10-16T00:45:40;100708.28;;;16.60;100.00
73679;BME280;61978;52.742;16.962;2022-10-16T00:48:07;100706.11;;;16.78;100.00
73679;BME280;61978;52.742;16.962;2022-10-16T00:50:35;100709.56;;;16.66;100.00
73679;BME280;61978;52.742;16.962;2022-10-16T00:53:02;100708.97;;;16.74;100.00
73679;BME280;61978;52.742;16.962;2022-10-16T00:55:30;100706.47;;;16.72;100.00
73679;BME280;61978;52.742;16.962;2022-10-16T00:57:57;100702.04;;;16.78;100.00
73679;BME280;61978;52.742;16.962;2022-10-16T01:00:25;100705.66;;;16.72;100.00
73679;BME280;61978;52.742;16.962;2022-10-16T01:02:52;100700.19;;;16.81;100.00
73679;BME280;61978;52.742;16.962;2022-10-16T01:05:20;100713.86;;;16.83;100.00
73679;BME280;61978;52.742;16.962;2022-10-16T01:10:26;100711.44;;;16.75;100.00
73679;BME280;61978;52.742;16.962;2022-10-16T01:12:59;100717.61;;;16.82;100.00
73679;BME280;61978;52.742;16.962;2022-10-16T01:20:31;100721.89;;;16.81;100.00
73679;BME280;61978;52.742;16.962;2022-10-16T01:23:05;100719.36;;;16.77;100.00
73679;BME280;61978;52.742;16.962;2022-10-16T01:28:15;100717.63;;;16.73;100.00
73679;BME280;61978;52.742;16.962;2022-10-16T01:30:43;100717.42;;;16.65;100.00
73679;BME280;61978;52.742;16.962;2022-10-16T01:33:13;100716.52;;;16.72;100.00
73679;BME280;61978;52.742;16.962;2022-10-16T01:35:41;100725.91;;;16.69;100.00
73679;BME280;61978;52.742;16.962;2022-10-16T01:40:40;100722.39;;;16.69;100.00
73679;BME280;61978;52.742;16.962;2022-10-16T01:43:08;100719.23;;;16.62;100.00
73679;BME280;61978;52.742;16.962;2022-10-16T01:45:38;100715.75;;;16.64;100.00
73679;BME280;61978;52.742;16.962;2022-10-16T01:48:06;100718.33;;;16.69;100.00
73679;BME280;61978;52.742;16.962;2022-10-16T01:50:35;100722.74;;;16.72;100.00
73679;BME280;61978;52.742;16.962;2022-10-16T01:53:03;100715.83;;;16.67;100.00
73679;BME280;61978;52.742;16.962;2022-10-16T01:55:31;100725.17;;;16.71;100.00
73679;BME280;61978;52.742;16.962;2022-10-16T01:58:00;100730.81;;;16.70;100.00
73679;BME280;61978;52.742;16.962;2022-10-16T02:00:28;100729.77;;;16.71;100.00
73679;BME280;61978;52.742;16.962;2022-10-16T02:02:56;100731.78;;;16.75;100.00
73679;BME280;61978;52.742;16.962;2022-10-16T02:05:29;100728.72;;;16.72;100.00
73679;BME280;61978;52.742;16.962;2022-10-16T02:07:55;100720.78;;;16.79;100.00
73679;BME280;61978;52.742;16.962;2022-10-16T02:10:22;100725.97;;;16.81;100.00
73679;BME280;61978;52.742;16.962;2022-10-16T02:12:54;100728.09;;;16.79;100.00
73679;BME280;61978;52.742;16.962;2022-10-16T02:15:18;100729.58;;;16.84;100.00
73679;BME280;61978;52.742;16.962;2022-10-16T02:17:48;100734.10;;;16.81;100.00
73679;BME280;61978;52.742;16.962;2022-10-16T02:20:14;100727.39;;;17.01;100.00
73679;BME280;61978;52.742;16.962;2022-10-16T02:22:45;100731.52;;;17.04;100.00
73679;BME280;61978;52.742;16.962;2022-10-16T02:25:15;100736.45;;;16.95;100.00
73679;BME280;61978;52.742;16.962;2022-10-16T02:30:28;100729.55;;;17.02;100.00
73679;BME280;61978;52.742;16.962;2022-10-16T02:32:55;100735.17;;;17.18;100.00
73679;BME280;61978;52.742;16.962;2022-10-16T02:35:22;100732.23;;;17.11;100.00
73679;BME280;61978;52.742;16.962;2022-10-16T02:37:50;100719.72;;;17.19;100.00
73679;BME280;61978;52.742;16.962;2022-10-16T02:40:18;100722.25;;;17.23;100.00
73679;BME280;61978;52.742;16.962;2022-10-16T02:42:49;100721.20;;;17.24;100.00
73679;BME280;61978;52.742;16.962;2022-10-16T02:45:15;100728.92;;;17.39;100.00
73679;BME280;61978;52.742;16.962;2022-10-16T02:47:42;100730.48;;;17.37;100.00
73679;BME280;61978;52.742;16.962;2022-10-16T02:52:39;100727.74;;;17.46;100.00
73679;BME280;61978;52.742;16.962;2022-10-16T02:55:06;100732.89;;;17.54;100.00
73679;BME280;61978;52.742;16.962;2022-10-16T02:57:34;100735.18;;;17.39;100.00
73679;BME280;61978;52.742;16.962;2022-10-16T03:00:02;100735.09;;;17.46;100.00
73679;BME280;61978;52.742;16.962;2022-10-16T03:02:29;100731.48;;;17.43;100.00
73679;BME280;61978;52.742;16.962;2022-10-16T03:04:55;100735.42;;;17.58;100.00
73679;BME280;61978;52.742;16.962;2022-10-16T03:07:22;100745.70;;;17.47;100.00
73679;BME280;61978;52.742;16.962;2022-10-16T03:09:48;100745.11;;;17.45;100.00
73679;BME280;61978;52.742;16.962;2022-10-16T03:12:16;100742.83;;;17.51;100.00
73679;BME280;61978;52.742;16.962;2022-10-16T03:14:43;100743.82;;;17.48;100.00
73679;BME280;61978;52.742;16.962;2022-10-16T03:17:10;100741.87;;;17.46;100.00
73679;BME280;61978;52.742;16.962;2022-10-16T03:19:37;100748.45;;;17.38;100.00
73679;BME280;61978;52.742;16.962;2022-10-16T03:22:04;100750.17;;;17.42;100.00
73679;BME280;61978;52.742;16.962;2022-10-16T03:24:31;100751.31;;;17.34;100.00
73679;BME280;61978;52.742;16.962;2022-10-16T03:29:31;100750.05;;;17.37;100.00
73679;BME280;61978;52.742;16.962;2022-10-16T03:31:59;100761.00;;;17.30;100.00
73679;BME280;61978;52.742;16.962;2022-10-16T03:34:56;100761.72;;;17.37;100.00
73679;BME280;61978;52.742;16.962;2022-10-16T03:37:23;100771.92;;;17.33;100.00
73679;BME280;61978;52.742;16.962;2022-10-16T03:39:49;100775.25;;;17.26;100.00
73679;BME280;61978;52.742;16.962;2022-10-16T03:42:15;100766.43;;;17.30;100.00
73679;BME280;61978;52.742;16.962;2022-10-16T03:44:49;100764.42;;;17.37;100.00
73679;BME280;61978;52.742;16.962;2022-10-16T03:47:15;100764.67;;;17.36;100.00
73679;BME280;61978;52.742;16.962;2022-10-16T03:49:44;100772.58;;;17.37;100.00
73679;BME280;61978;52.742;16.962;2022-10-16T03:52:10;100777.88;;;17.32;100.00
73679;BME280;61978;52.742;16.962;2022-10-16T03:54:37;100784.53;;;17.27;100.00
73679;BME280;61978;52.742;16.962;2022-10-16T03:57:05;100787.01;;;17.29;100.00
73679;BME280;61978;52.742;16.962;2022-10-16T03:59:31;100792.04;;;17.34;100.00
73679;BME280;61978;52.742;16.962;2022-10-16T04:01:59;100785.84;;;17.45;100.00
73679;BME280;61978;52.742;16.962;2022-10-16T04:04:25;100789.77;;;17.40;100.00
73679;BME280;61978;52.742;16.962;2022-10-16T04:06:51;100790.13;;;17.44;100.00
73679;BME280;61978;52.742;16.962;2022-10-16T04:09:18;100788.72;;;17.41;100.00
73679;BME280;61978;52.742;16.962;2022-10-16T04:11:44;100786.89;;;17.44;100.00
73679;BME280;61978;52.742;16.962;2022-10-16T04:14:12;100786.59;;;17.43;100.00
73679;BME280;61978;52.742;16.962;2022-10-16T04:16:38;100790.01;;;17.39;100.00
73679;BME280;61978;52.742;16.962;2022-10-16T04:19:04;100789.95;;;17.36;100.00
73679;BME280;61978;52.742;16.962;2022-10-16T04:21:31;100793.70;;;17.35;100.00
73679;BME280;61978;52.742;16.962;2022-10-16T04:24:03;100796.57;;;17.31;100.00
73679;BME280;61978;52.742;16.962;2022-10-16T04:26:29;100804.57;;;17.35;100.00
73679;BME280;61978;52.742;16.962;2022-10-16T04:28:55;100800.03;;;17.38;100.00
73679;BME280;61978;52.742;16.962;2022-10-16T04:31:22;100808.95;;;17.36;100.00
73679;BME280;61978;52.742;16.962;2022-10-16T04:33:48;100814.01;;;17.33;100.00
73679;BME280;61978;52.742;16.962;2022-10-16T04:36:15;100816.02;;;17.37;100.00
73679;BME280;61978;52.742;16.962;2022-10-16T04:38:42;100820.16;;;17.49;100.00
73679;BME280;61978;52.742;16.962;2022-10-16T04:41:12;100829.59;;;17.37;100.00
73679;BME280;61978;52.742;16.962;2022-10-16T04:43:39;100822.56;;;17.18;100.00
73679;BME280;61978;52.742;16.962;2022-10-16T04:46:06;100828.06;;;17.11;100.00
73679;BME280;61978;52.742;16.962;2022-10-16T04:48:33;100821.66;;;17.15;100.00
73679;BME280;61978;52.742;16.962;2022-10-16T04:51:00;100826.19;;;17.03;100.00
73679;BME280;61978;52.742;16.962;2022-10-16T04:53:26;100809.06;;;17.11;100.00
73679;BME280;61978;52.742;16.962;2022-10-16T04:55:52;100810.11;;;17.10;100.00
73679;BME280;61978;52.742;16.962;2022-10-16T04:58:19;100817.39;;;16.98;100.00
73679;BME280;61978;52.742;16.962;2022-10-16T05:00:45;100825.14;;;17.04;100.00
73679;BME280;61978;52.742;16.962;2022-10-16T05:03:12;100834.78;;;17.00;100.00
73679;BME280;61978;52.742;16.962;2022-10-16T05:05:42;100831.30;;;17.11;100.00
73679;BME280;61978;52.742;16.962;2022-10-16T05:08:07;100832.45;;;17.12;100.00
73679;BME280;61978;52.742;16.962;2022-10-16T05:10:33;100832.90;;;17.09;100.00
73679;BME280;61978;52.742;16.962;2022-10-16T05:12:59;100833.29;;;16.86;100.00
73679;BME280;61978;52.742;16.962;2022-10-16T05:15:25;100829.95;;;16.93;100.00
73679;BME280;61978;52.742;16.962;2022-10-16T05:17:52;100823.63;;;16.90;100.00
73679;BME280;61978;52.742;16.962;2022-10-16T05:20:19;100822.72;;;16.87;100.00
73679;BME280;61978;52.742;16.962;2022-10-16T05:22:45;100832.66;;;17.02;100.00
73679;BME280;61978;52.742;16.962;2022-10-16T05:25:12;100830.71;;;17.09;100.00
73679;BME280;61978;52.742;16.962;2022-10-16T05:27:38;100828.89;;;17.12;100.00
73679;BME280;61978;52.742;16.962;2022-10-16T05:30:05;100832.90;;;17.09;100.00
73679;BME280;61978;52.742;16.962;2022-10-16T05:32:32;100836.91;;;16.98;100.00
73679;BME280;61978;52.742;16.962;2022-10-16T05:34:58;100833.14;;;16.72;100.00
73679;BME280;61978;52.742;16.962;2022-10-16T05:37:25;100826.20;;;16.85;100.00
73679;BME280;61978;52.742;16.962;2022-10-16T05:39:53;100825.60;;;16.83;100.00
73679;BME280;61978;52.742;16.962;2022-10-16T05:42:19;100824.45;;;16.81;100.00
73679;BME280;61978;52.742;16.962;2022-10-16T05:44:45;100826.89;;;16.80;100.00
73679;BME280;61978;52.742;16.962;2022-10-16T05:47:12;100830.78;;;16.84;100.00
73679;BME280;61978;52.742;16.962;2022-10-16T05:49:39;100832.08;;;16.91;100.00
73679;BME280;61978;52.742;16.962;2022-10-16T05:52:06;100832.83;;;17.07;100.00
73679;BME280;61978;52.742;16.962;2022-10-16T05:54:33;100841.64;;;17.02;100.00
73679;BME280;61978;52.742;16.962;2022-10-16T05:56:59;100838.27;;;17.07;100.00
73679;BME280;61978;52.742;16.962;2022-10-16T05:59:26;100838.72;;;16.95;100.00
73679;BME280;61978;52.742;16.962;2022-10-16T06:01:52;100838.02;;;16.90;100.00
73679;BME280;61978;52.742;16.962;2022-10-16T06:04:19;100833.88;;;16.88;100.00
73679;BME280;61978;52.742;16.962;2022-10-16T06:06:45;100836.07;;;16.97;100.00
73679;BME280;61978;52.742;16.962;2022-10-16T06:09:11;100821.67;;;16.97;100.00
73679;BME280;61978;52.742;16.962;2022-10-16T06:11:37;100819.78;;;17.06;100.00
73679;BME280;61978;52.742;16.962;2022-10-16T06:14:03;100823.48;;;17.03;100.00
73679;BME280;61978;52.742;16.962;2022-10-16T06:16:31;100809.30;;;17.19;100.00
73679;BME280;61978;52.742;16.962;2022-10-16T06:18:57;100824.48;;;17.29;100.00
73679;BME280;61978;52.742;16.962;2022-10-16T06:21:26;100828.22;;;17.46;100.00
73679;BME280;61978;52.742;16.962;2022-10-16T06:23:54;100841.50;;;17.63;100.00
73679;BME280;61978;52.742;16.962;2022-10-16T06:26:22;100836.01;;;18.14;100.00
73679;BME280;61978;52.742;16.962;2022-10-16T06:28:48;100843.45;;;18.30;100.00
73679;BME280;61978;52.742;16.962;2022-10-16T06:31:15;100849.61;;;18.37;100.00
73679;BME280;61978;52.742;16.962;2022-10-16T06:33:41;100857.36;;;18.31;100.00
73679;BME280;61978;52.742;16.962;2022-10-16T06:36:09;100861.30;;;18.58;100.00
73679;BME280;61978;52.742;16.962;2022-10-16T06:38:36;100856.28;;;18.64;100.00
73679;BME280;61978;52.742;16.962;2022-10-16T06:41:03;100857.36;;;18.89;100.00
73679;BME280;61978;52.742;16.962;2022-10-16T06:43:30;100854.73;;;19.06;100.00
73679;BME280;61978;52.742;16.962;2022-10-16T06:46:01;100859.57;;;19.04;100.00
73679;BME280;61978;52.742;16.962;2022-10-16T06:49:55;100864.07;;;18.72;100.00
73679;BME280;61978;52.742;16.962;2022-10-16T06:52:21;100877.61;;;18.81;100.00
73679;BME280;61978;52.742;16.962;2022-10-16T06:54:47;100878.09;;;18.78;100.00
73679;BME280;61978;52.742;16.962;2022-10-16T06:57:14;100892.58;;;18.81;100.00
73679;BME280;61978;52.742;16.962;2022-10-16T07:00:39;100897.38;;;18.45;100.00
73679;BME280;61978;52.742;16.962;2022-10-16T07:03:06;100900.86;;;18.63;100.00
73679;BME280;61978;52.742;16.962;2022-10-16T07:05:38;100909.13;;;18.80;100.00
73679;BME280;61978;52.742;16.962;2022-10-16T07:08:05;100915.05;;;18.65;100.00
73679;BME280;61978;52.742;16.962;2022-10-16T07:10:33;100905.52;;;18.88;100.00
73679;BME280;61978;52.742;16.962;2022-10-16T07:13:01;100907.89;;;18.97;100.00
73679;BME280;61978;52.742;16.962;2022-10-16T07:15:27;100906.27;;;19.10;100.00
73679;BME280;61978;52.742;16.962;2022-10-16T07:17:54;100907.34;;;19.09;100.00
73679;BME280;61978;52.742;16.962;2022-10-16T07:20:21;100906.53;;;18.97;100.00
73679;BME280;61978;52.742;16.962;2022-10-16T07:22:47;100905.80;;;19.01;100.00
73679;BME280;61978;52.742;16.962;2022-10-16T07:25:13;100903.06;;;19.13;100.00
73679;BME280;61978;52.742;16.962;2022-10-16T07:27:39;100907.52;;;19.42;100.00
73679;BME280;61978;52.742;16.962;2022-10-16T07:30:07;100906.40;;;19.80;100.00
73679;BME280;61978;52.742;16.962;2022-10-16T07:32:33;100926.81;;;19.52;100.00
73679;BME280;61978;52.742;16.962;2022-10-16T07:35:00;100926.33;;;19.55;100.00
73679;BME280;61978;52.742;16.962;2022-10-16T07:37:26;100917.19;;;19.61;100.00
73679;BME280;61978;52.742;16.962;2022-10-16T07:39:53;100917.53;;;19.65;100.00
73679;BME280;61978;52.742;16.962;2022-10-16T07:42:20;100916.26;;;19.56;100.00
73679;BME280;61978;52.742;16.962;2022-10-16T07:44:46;100926.84;;;19.29;100.00
73679;BME280;61978;52.742;16.962;2022-10-16T07:47:13;100913.00;;;19.56;100.00
73679;BME280;61978;52.742;16.962;2022-10-16T07:49:42;100924.00;;;19.61;100.00
73679;BME280;61978;52.742;16.962;2022-10-16T07:52:08;100941.30;;;19.41;100.00
73679;BME280;61978;52.742;16.962;2022-10-16T07:54:35;100951.77;;;19.47;100.00
73679;BME280;61978;52.742;16.962;2022-10-16T07:57:02;100951.99;;;19.71;100.00
73679;BME280;61978;52.742;16.962;2022-10-16T07:59:29;100949.39;;;20.21;100.00
73679;BME280;61978;52.742;16.962;2022-10-16T08:01:56;100949.16;;;20.08;100.00
73679;BME280;61978;52.742;16.962;2022-10-16T08:04:23;100957.70;;;19.98;100.00
73679;BME280;61978;52.742;16.962;2022-10-16T08:06:50;100963.13;;;20.12;100.00
73679;BME280;61978;52.742;16.962;2022-10-16T08:09:19;100974.33;;;19.84;100.00
73679;BME280;61978;52.742;16.962;2022-10-16T08:11:47;100961.77;;;20.12;100.00
73679;BME280;61978;52.742;16.962;2022-10-16T08:14:15;100958.55;;;20.15;100.00
73679;BME280;61978;52.742;16.962;2022-10-16T08:25:44;100955.53;;;20.14;100.00
73679;BME280;61978;52.742;16.962;2022-10-16T08:38:31;100971.09;;;20.27;100.00
73679;BME280;61978;52.742;16.962;2022-10-16T08:44:12;100972.28;;;20.48;100.00
73679;BME280;61978;52.742;16.962;2022-10-16T08:49:00;100974.62;;;20.42;100.00
73679;BME280;61978;52.742;16.962;2022-10-16T08:51:30;100983.20;;;20.48;100.00
73679;BME280;61978;52.742;16.962;2022-10-16T08:54:04;100971.05;;;20.72;100.00
73679;BME280;61978;52.742;16.962;2022-10-16T08:56:31;100964.55;;;20.59;100.00
73679;BME280;61978;52.742;16.962;2022-10-16T08:58:59;100973.72;;;20.53;100.00
73679;BME280;61978;52.742;16.962;2022-10-16T09:01:44;100976.21;;;20.71;100.00
73679;BME280;61978;52.742;16.962;2022-10-16T09:07:15;100985.55;;;20.59;100.00
73679;BME280;61978;52.742;16.962;2022-10-16T09:09:50;100982.20;;;20.71;100.00
73679;BME280;61978;52.742;16.962;2022-10-16T09:12:21;100987.66;;;20.54;100.00
73679;BME280;61978;52.742;16.962;2022-10-16T09:18:06;100981.30;;;20.65;100.00
73679;BME280;61978;52.742;16.962;2022-10-16T09:23:29;100969.77;;;21.11;100.00
73679;BME280;61978;52.742;16.962;2022-10-16T09:25:57;100968.56;;;21.06;100.00
73679;BME280;61978;52.742;16.962;2022-10-16T09:28:25;100970.13;;;21.02;100.00
73679;BME280;61978;52.742;16.962;2022-10-16T09:30:53;100976.23;;;21.07;100.00
73679;BME280;61978;52.742;16.962;2022-10-16T09:33:23;100971.69;;;21.13;100.00
73679;BME280;61978;52.742;16.962;2022-10-16T09:35:52;100974.50;;;21.37;100.00
73679;BME280;61978;52.742;16.962;2022-10-16T09:38:30;100983.73;;;21.33;100.00
73679;BME280;61978;52.742;16.962;2022-10-16T09:41:18;100986.16;;;20.96;100.00
73679;BME280;61978;52.742;16.962;2022-10-16T09:43:38;100969.63;;;21.20;100.00
73679;BME280;61978;52.742;16.962;2022-10-16T09:46:08;100969.63;;;21.20;100.00
73679;BME280;61978;52.742;16.962;2022-10-16T09:48:43;100970.73;;;21.40;100.00
73679;BME280;61978;52.742;16.962;2022-10-16T09:51:20;100979.99;;;21.39;100.00
73679;BME280;61978;52.742;16.962;2022-10-16T09:53:48;100972.32;;;21.58;100.00
73679;BME280;61978;52.742;16.962;2022-10-16T09:56:30;100969.18;;;21.90;100.00
73679;BME280;61978;52.742;16.962;2022-10-16T09:59:00;100964.48;;;22.12;100.00
73679;BME280;61978;52.742;16.962;2022-10-16T10:01:36;100975.40;;;22.37;100.00
73679;BME280;61978;52.742;16.962;2022-10-16T10:04:07;100980.42;;;22.45;100.00
73679;BME280;61978;52.742;16.962;2022-10-16T10:06:41;100973.32;;;22.49;100.00
73679;BME280;61978;52.742;16.962;2022-10-16T10:09:29;100979.07;;;22.47;100.00
73679;BME280;61978;52.742;16.962;2022-10-16T10:11:58;100973.41;;;22.88;100.00
73679;BME280;61978;52.742;16.962;2022-10-16T10:19:42;100993.14;;;22.61;100.00
73679;BME280;61978;52.742;16.962;2022-10-16T10:22:24;100986.86;;;22.34;100.00
73679;BME280;61978;52.742;16.962;2022-10-16T10:28:07;100951.06;;;23.04;100.00
73679;BME280;61978;52.742;16.962;2022-10-16T10:33:34;100989.15;;;22.68;100.00
73679;BME280;61978;52.742;16.962;2022-10-16T10:38:53;100971.55;;;22.33;100.00
73679;BME280;61978;52.742;16.962;2022-10-16T10:52:25;100972.03;;;22.56;100.00
73679;BME280;61978;52.742;16.962;2022-10-16T10:55:00;100972.67;;;22.66;100.00
73679;BME280;61978;52.742;16.962;2022-10-16T11:00:20;100993.37;;;22.28;100.00
73679;BME280;61978;52.742;16.962;2022-10-16T11:10:54;100985.49;;;22.34;100.00
73679;BME280;61978;52.742;16.962;2022-10-16T11:13:36;100998.22;;;22.18;100.00
73679;BME280;61978;52.742;16.962;2022-10-16T11:16:11;100998.83;;;21.79;100.00
73679;BME280;61978;52.742;16.962;2022-10-16T11:18:55;100955.83;;;22.21;100.00
73679;BME280;61978;52.742;16.962;2022-10-16T11:21:20;100976.53;;;22.11;100.00
73679;BME280;61978;52.742;16.962;2022-10-16T11:26:20;100969.05;;;22.31;100.00
73679;BME280;61978;52.742;16.962;2022-10-16T11:28:53;100976.86;;;22.18;100.00
73679;BME280;61978;52.742;16.962;2022-10-16T11:31:50;100956.34;;;22.47;100.00
73679;BME280;61978;52.742;16.962;2022-10-16T11:37:22;100969.99;;;22.42;100.00
73679;BME280;61978;52.742;16.962;2022-10-16T11:39:52;100952.98;;;22.40;100.00
73679;BME280;61978;52.742;16.962;2022-10-16T11:42:37;100969.41;;;22.40;100.00
73679;BME280;61978;52.742;16.962;2022-10-16T11:50:37;100972.95;;;22.64;100.00
73679;BME280;61978;52.742;16.962;2022-10-16T11:55:51;100963.98;;;22.72;100.00
73679;BME280;61978;52.742;16.962;2022-10-16T11:58:30;100966.47;;;22.78;100.00
73679;BME280;61978;52.742;16.962;2022-10-16T12:01:22;100969.98;;;22.68;100.00
73679;BME280;61978;52.742;16.962;2022-10-16T12:06:34;100972.25;;;22.50;100.00
73679;BME280;61978;52.742;16.962;2022-10-16T12:09:02;100964.62;;;22.57;100.00
73679;BME280;61978;52.742;16.962;2022-10-16T12:11:34;100979.97;;;22.58;100.00
73679;BME280;61978;52.742;16.962;2022-10-16T12:14:07;100983.85;;;22.62;100.00
73679;BME280;61978;52.742;16.962;2022-10-16T12:16:33;100975.53;;;22.81;100.00
73679;BME280;61978;52.742;16.962;2022-10-16T12:19:16;100959.00;;;23.05;100.00
73679;BME280;61978;52.742;16.962;2022-10-16T12:21:45;100982.79;;;22.97;100.00
73679;BME280;61978;52.742;16.962;2022-10-16T12:26:52;101011.46;;;22.87;100.00
73679;BME280;61978;52.742;16.962;2022-10-16T12:29:37;101010.03;;;22.77;100.00
73679;BME280;61978;52.742;16.962;2022-10-16T12:32:29;100990.38;;;22.88;100.00
73679;BME280;61978;52.742;16.962;2022-10-16T12:34:42;100982.60;;;23.11;100.00
73679;BME280;61978;52.742;16.962;2022-10-16T12:37:24;100982.17;;;23.30;100.00
73679;BME280;61978;52.742;16.962;2022-10-16T12:39:53;101004.29;;;23.15;100.00
73679;BME280;61978;52.742;16.962;2022-10-16T12:44:56;101002.86;;;23.50;100.00
73679;BME280;61978;52.742;16.962;2022-10-16T12:49:59;101012.97;;;23.39;100.00
73679;BME280;61978;52.742;16.962;2022-10-16T12:52:34;101012.52;;;23.18;100.00
73679;BME280;61978;52.742;16.962;2022-10-16T12:54:57;101005.23;;;23.34;100.00
73679;BME280;61978;52.742;16.962;2022-10-16T13:00:32;101021.81;;;23.14;100.00
73679;BME280;61978;52.742;16.962;2022-10-16T13:06:22;101024.66;;;22.93;100.00
73679;BME280;61978;52.742;16.962;2022-10-16T13:09:02;101006.08;;;22.97;100.00
73679;BME280;61978;52.742;16.962;2022-10-16T13:20:02;101001.78;;;23.48;100.00
73679;BME280;61978;52.742;16.962;2022-10-16T13:22:34;101013.91;;;23.62;100.00
73679;BME280;61978;52.742;16.962;2022-10-16T13:25:06;101045.32;;;23.40;100.00
73679;BME280;61978;52.742;16.962;2022-10-16T13:27:39;101069.41;;;23.03;100.00
73679;BME280;61978;52.742;16.962;2022-10-16T13:30:18;101076.29;;;23.08;100.00
73679;BME280;61978;52.742;16.962;2022-10-16T13:32:48;101041.70;;;23.37;100.00
73679;BME280;61978;52.742;16.962;2022-10-16T13:35:21;101074.75;;;23.22;100.00
73679;BME280;61978;52.742;16.962;2022-10-16T13:37:50;101037.20;;;23.60;100.00
73679;BME280;61978;52.742;16.962;2022-10-16T13:40:24;101034.33;;;23.94;100.00
73679;BME280;61978;52.742;16.962;2022-10-16T13:42:52;101066.39;;;23.81;100.00
73679;BME280;61978;52.742;16.962;2022-10-16T13:45:22;101077.50;;;23.57;100.00
73679;BME280;61978;52.742;16.962;2022-10-16T13:47:49;101084.86;;;23.49;100.00
73679;BME280;61978;52.742;16.962;2022-10-16T13:50:18;101089.03;;;23.24;100.00
73679;BME280;61978;52.742;16.962;2022-10-16T13:52:45;101083.66;;;23.05;100.00
73679;BME280;61978;52.742;16.962;2022-10-16T13:55:16;101075.52;;;22.84;100.00
73679;BME280;61978;52.742;16.962;2022-10-16T13:57:43;101059.20;;;22.96;100.00
73679;BME280;61978;52.742;16.962;2022-10-16T14:00:24;101054.53;;;22.94;100.00
73679;BME280;61978;52.742;16.962;2022-10-16T14:03:02;101055.28;;;22.87;100.00
73679;BME280;61978;52.742;16.962;2022-10-16T14:05:30;101043.36;;;23.01;100.00
73679;BME280;61978;52.742;16.962;2022-10-16T14:07:57;101051.11;;;23.11;100.00
73679;BME280;61978;52.742;16.962;2022-10-16T14:10:32;101090.96;;;22.92;100.00
73679;BME280;61978;52.742;16.962;2022-10-16T14:13:01;101124.95;;;22.69;100.00
73679;BME280;61978;52.742;16.962;2022-10-16T14:15:34;101123.88;;;22.71;100.00
73679;BME280;61978;52.742;16.962;2022-10-16T14:17:58;101126.13;;;22.76;100.00
73679;BME280;61978;52.742;16.962;2022-10-16T14:20:31;101126.06;;;22.68;100.00
73679;BME280;61978;52.742;16.962;2022-10-16T14:23:22;101114.95;;;22.80;100.00
73679;BME280;61978;52.742;16.962;2022-10-16T14:25:52;101128.23;;;22.69;100.00
73679;BME280;61978;52.742;16.962;2022-10-16T14:28:21;101116.33;;;22.58;100.00
73679;BME280;61978;52.742;16.962;2022-10-16T14:30:56;101130.30;;;22.35;100.00
73679;BME280;61978;52.742;16.962;2022-10-16T14:41:06;101122.53;;;22.51;100.00
73679;BME280;61978;52.742;16.962;2022-10-16T14:43:35;101131.99;;;22.39;100.00
73679;BME280;61978;52.742;16.962;2022-10-16T14:46:09;101113.44;;;22.46;100.00
73679;BME280;61978;52.742;16.962;2022-10-16T14:48:33;101123.31;;;22.47;100.00
73679;BME280;61978;52.742;16.962;2022-10-16T14:51:00;101115.11;;;22.47;100.00
73679;BME280;61978;52.742;16.962;2022-10-16T14:53:27;101130.70;;;22.25;100.00
73679;BME280;61978;52.742;16.962;2022-10-16T14:55:54;101115.22;;;22.33;100.00
73679;BME280;61978;52.742;16.962;2022-10-16T14:58:24;101119.20;;;22.23;100.00
73679;BME280;61978;52.742;16.962;2022-10-16T15:00:52;101116.51;;;22.28;100.00